Date,TemperatureHighF,TemperatureAvgF,TemperatureLowF,DewpointHighF,DewpointAvgF,DewpointLowF,HumidityHigh,HumidityAvg,HumidityLow,PressureMaxIn,PressureMinIn,WindSpeedMaxMPH,WindSpeedAvgMPH,GustSpeedMaxMPH,PrecipitationSumIn
2013-4-1,59.1,46.3,35.6,45.8,35.8,15.2,94,69,39,29.94,29.69,18,9,27,0.01
2013-4-2,41.9,35.8,31.2,20.6,17.0,14.2,59,46,35,30.13,29.94,14,7,21,0.00
2013-4-3,44.4,35.9,29.7,21.5,16.5,11.1,57,46,31,30.33,30.13,15,8,22,0.00
2013-4-4,46.9,36.7,27.6,28.2,18.6,13.5,65,49,30,30.40,30.06,9,5,17,0.00
2013-4-5,59.6,46.6,35.5,35.1,27.9,15.7,93,55,23,30.06,29.79,12,6,19,0.00
2013-4-6,54.1,42.0,32.6,28.2,20.4,16.5,64,43,25,30.30,30.01,14,6,18,0.00
2013-4-7,59.7,48.2,37.2,45.3,37.4,24.6,89,67,52,30.26,29.97,16,10,25,0.00
2013-4-8,74.9,63.7,52.3,52.2,47.4,43.4,75,57,39,30.05,29.92,11,6,17,0.00
2013-4-9,80.3,70.2,61.3,55.2,52.6,49.0,70,55,37,30.01,29.86,14,8,19,0.00
2013-4-10,85.4,74.0,61.4,59.9,55.8,51.9,89,54,39,29.89,29.71,15,9,26,0.04
2013-4-11,78.9,64.2,49.8,63.0,56.7,46.6,92,78,51,29.85,29.75,10,5,19,0.01
2013-4-12,49.8,46.7,43.8,48.2,45.6,43.0,97,96,91,29.83,29.61,14,6,18,0.94
2013-4-13,60.2,50.1,42.1,44.0,40.2,36.0,98,71,47,29.95,29.75,11,5,18,0.00
2013-4-14,60.6,51.0,43.0,38.1,35.4,30.1,75,56,37,30.12,29.94,10,4,14,0.00
2013-4-15,60.5,52.5,46.9,47.4,41.8,34.9,87,68,51,30.28,30.12,8,5,18,0.00
2013-4-16,68.0,57.1,48.6,57.8,51.7,45.6,90,83,69,30.29,30.09,15,8,27,0.00
2013-4-17,67.0,59.4,54.6,58.4,52.0,44.0,96,78,47,30.22,30.08,15,5,17,0.00
2013-4-18,61.9,56.2,52.9,59.7,51.9,40.7,97,86,61,30.23,29.99,8,5,16,0.08
2013-4-19,71.1,61.8,50.8,65.2,59.2,48.8,98,92,79,30.00,29.56,17,10,30,1.07
2013-4-20,53.2,47.4,41.0,49.1,35.3,27.0,94,65,42,30.32,29.71,17,8,22,0.06
2013-4-21,52.1,42.0,33.4,33.7,27.0,21.9,80,56,39,30.58,30.32,12,5,20,0.00
2013-4-22,55.2,44.1,35.5,38.4,33.8,29.0,83,68,49,30.58,30.42,9,4,17,0.00
2013-4-23,57.1,46.9,40.9,46.1,40.2,35.8,90,78,65,30.42,30.10,11,4,17,0.00
2013-4-24,67.8,54.9,42.6,57.6,49.9,40.9,97,84,65,30.11,29.76,17,7,28,0.06
2013-4-25,60.5,50.4,40.5,50.6,34.1,28.3,80,56,31,30.27,29.93,17,7,23,0.00
2013-4-26,60.7,52.6,44.1,38.8,32.6,26.3,71,48,29,30.43,30.27,9,4,14,0.00
2013-4-27,69.9,57.5,47.9,39.9,32.9,27.5,55,40,27,30.41,30.25,7,3,10,0.00
2013-4-28,65.7,56.7,49.7,45.8,41.0,34.1,80,57,35,30.26,30.13,13,6,20,0.01
2013-4-29,55.7,52.9,48.3,54.9,50.4,38.2,97,92,60,30.14,30.06,8,4,16,0.71
2013-4-30,68.3,57.4,50.9,55.2,50.0,33.9,98,78,52,30.28,30.11,7,4,14,0.04